Time;durP1;ratioP1;P1;durP2;ratioP2;P2;SDS_P1;SDS_P2;PMS_P1;PMS_P2;Temp;Humidity;BMP_temperature;BMP_pressure;BME280_temperature;BME280_humidity;BME280_pressure;Samples;Min_cycle;Max_cycle;Signal;HPM_P1;HPM_P2
2023/01/30 00:01:26;;;;;;;25.92;14.50;;;-2.40;99.90;;;;;;5071422;28;20036;-69
2023/01/30 00:03:52;;;;;;;26.75;15.05;;;-2.50;99.90;;;;;;5067418;28;20435;-69
2023/01/30 00:06:18;;;;;;;25.48;14.55;;;-2.50;99.90;;;;;;5067924;28;20108;-69
2023/01/30 00:08:44;;;;;;;28.35;15.30;;;-2.50;99.90;;;;;;5072054;28;20487;-69
2023/01/30 00:11:12;;;;;;;24.55;13.82;;;-2.50;99.90;;;;;;5074584;28;20029;-69
2023/01/30 00:13:39;;;;;;;27.15;14.80;;;-2.60;99.90;;;;;;5074472;28;20389;-69
2023/01/30 00:16:05;;;;;;;25.05;14.77;;;-2.60;99.90;;;;;;5071537;28;20037;-69
2023/01/30 00:18:31;;;;;;;29.55;15.23;;;-2.60;99.90;;;;;;5073732;28;20028;-69
2023/01/30 00:20:58;;;;;;;29.52;15.88;;;-2.70;99.90;;;;;;5071489;28;20037;-69
2023/01/30 00:23:24;;;;;;;27.85;15.00;;;-2.70;99.90;;;;;;5070815;28;20054;-69
2023/01/30 00:25:50;;;;;;;27.95;15.20;;;-2.60;99.90;;;;;;5071461;28;20110;-69
2023/01/30 00:28:16;;;;;;;28.40;15.43;;;-2.60;99.90;;;;;;5074909;28;20465;-69
2023/01/30 00:30:41;;;;;;;26.25;14.90;;;-2.50;99.90;;;;;;5074255;28;20035;-69
2023/01/30 00:33:08;;;;;;;28.88;14.95;;;-2.50;99.90;;;;;;5071559;28;20603;-69
2023/01/30 00:35:34;;;;;;;29.30;14.77;;;-2.30;99.90;;;;;;5071961;28;20025;-69
2023/01/30 00:38:00;;;;;;;28.20;14.00;;;-2.30;99.90;;;;;;5070597;28;20111;-69
2023/01/30 00:40:26;;;;;;;25.77;14.13;;;-2.40;99.90;;;;;;5073296;28;20036;-69
2023/01/30 00:48:23;;;;;;;29.27;14.23;;;-2.40;99.90;;;;;;5070388;28;20035;-69
2023/01/30 00:50:48;;;;;;;28.52;13.98;;;-2.30;99.90;;;;;;5070917;28;20028;-69
2023/01/30 00:53:15;;;;;;;27.33;14.27;;;-2.40;99.90;;;;;;5073514;28;20477;-69
2023/01/30 00:55:42;;;;;;;28.95;14.77;;;-2.50;99.90;;;;;;5071836;28;20020;-69
2023/01/30 00:58:08;;;;;;;28.50;14.48;;;-2.50;99.90;;;;;;5066942;28;20180;-69
2023/01/30 01:00:34;;;;;;;25.77;14.50;;;-2.50;99.90;;;;;;5070359;28;20090;-69
2023/01/30 01:03:00;;;;;;;31.92;16.05;;;-2.50;99.90;;;;;;5073828;28;20078;-69
2023/01/30 01:05:26;;;;;;;27.27;14.55;;;-2.50;99.90;;;;;;5073686;28;20024;-69
2023/01/30 01:07:52;;;;;;;30.25;14.48;;;-2.50;99.90;;;;;;5069467;28;20118;-69
2023/01/30 01:10:18;;;;;;;27.00;14.35;;;-2.50;99.90;;;;;;5071427;28;20465;-69
2023/01/30 01:12:44;;;;;;;26.45;13.65;;;-2.40;99.90;;;;;;5072579;28;20028;-69
2023/01/30 01:15:12;;;;;;;25.77;14.18;;;-2.40;99.90;;;;;;5065807;28;20027;-69
2023/01/30 01:17:39;;;;;;;31.67;15.02;;;-2.50;99.90;;;;;;5070258;28;20036;-69
2023/01/30 01:20:05;;;;;;;28.10;14.40;;;-2.60;99.90;;;;;;5069877;28;20039;-69
2023/01/30 01:22:30;;;;;;;28.95;14.40;;;-2.70;99.90;;;;;;5074021;28;20612;-68
2023/01/30 01:24:56;;;;;;;27.30;14.80;;;-2.80;99.90;;;;;;5069000;28;20044;-69
2023/01/30 01:27:21;;;;;;;28.77;14.05;;;-2.90;99.90;;;;;;5070955;28;20033;-68
2023/01/30 01:29:47;;;;;;;28.40;14.88;;;-2.90;99.90;;;;;;5055777;28;20052;-69
2023/01/30 01:32:13;;;;;;;28.13;14.63;;;;;;;;;;5071795;28;20025;-68
2023/01/30 01:34:39;;;;;;;26.30;13.82;;;;;;;;;;5071798;28;20388;-68
2023/01/30 01:37:05;;;;;;;29.23;15.82;;;;;;;;;;5070827;28;20029;-69
2023/01/30 01:42:15;;;;;;;30.45;15.05;;;;;;;;;;5066658;28;20101;-68
2023/01/30 01:45:00;;;;;;;30.70;16.10;;;;;;;;;;5071573;28;20074;-68
2023/01/30 01:47:26;;;;;;;29.38;15.55;;;;;;;;;;5072041;28;20031;-68
2023/01/30 01:49:52;;;;;;;28.48;14.75;;;;;;;;;;5070902;28;20029;-68
2023/01/30 01:52:18;;;;;;;30.17;15.63;;;;;;;;;;5072031;28;20107;-68
2023/01/30 01:54:49;;;;;;;29.17;15.45;;;;;;;;;;5071223;28;20095;-69
2023/01/30 01:57:17;;;;;;;30.30;14.35;;;;;;;;;;5059988;28;20363;-69
2023/01/30 01:59:46;;;;;;;25.73;13.88;;;;;;;;;;5071271;28;20039;-69
2023/01/30 02:02:13;;;;;;;28.10;15.05;;;;;;;;;;5070779;28;20377;-68
2023/01/30 02:07:26;;;;;;;28.05;14.70;;;;;;;;;;5069863;28;20047;-68
2023/01/30 02:09:52;;;;;;;29.85;14.70;;;;;;;;;;5064563;28;20032;-68
2023/01/30 02:12:18;;;;;;;27.60;15.68;;;;;;;;;;5067692;28;20055;-68
2023/01/30 02:14:44;;;;;;;27.58;15.20;;;;;;;;;;5072589;28;20023;-68
2023/01/30 02:17:10;;;;;;;28.40;14.88;;;;;;;;;;5071265;28;20028;-68
2023/01/30 02:19:59;;;;;;;25.05;14.45;;;;;;;;;;5071111;28;20037;-68
2023/01/30 02:22:36;;;;;;;26.08;14.98;;;;;;;;;;5072666;28;20025;-69
2023/01/30 02:25:14;;;;;;;29.38;15.60;;;;;;;;;;5069810;28;20049;-69
2023/01/30 02:27:53;;;;;;;29.23;15.73;;;;;;;;;;5078520;28;20027;-68
2023/01/30 02:30:38;;;;;;;26.85;14.75;;;;;;;;;;5067025;28;20044;-68
2023/01/30 02:33:18;;;;;;;25.80;14.07;;;;;;;;;;5070303;28;20032;-68
2023/01/30 02:35:44;;;;;;;27.65;14.95;;;;;;;;;;5071363;28;20013;-69
2023/01/30 02:38:29;;;;;;;28.30;14.57;;;;;;;;;;5070099;28;20579;-68
2023/01/30 02:41:13;;;;;;;26.05;14.85;;;;;;;;;;5070536;28;20078;-69
2023/01/30 02:43:51;;;;;;;26.15;14.30;;;;;;;;;;5070893;28;20461;-69
2023/01/30 02:46:24;;;;;;;26.42;14.95;;;;;;;;;;5074953;28;20494;-70
2023/01/30 02:48:56;;;;;;;28.20;15.38;;;;;;;;;;5073093;28;20028;-69
2023/01/30 02:51:33;;;;;;;29.17;14.82;;;;;;;;;;5071118;28;20027;-69
2023/01/30 02:53:59;;;;;;;29.13;14.27;;;;;;;;;;5067944;28;20027;-70
2023/01/30 02:56:25;;;;;;;29.98;15.95;;;;;;;;;;5071021;28;20031;-69
2023/01/30 02:58:58;;;;;;;27.05;14.70;;;;;;;;;;5070067;28;20037;-69
2023/01/30 03:01:39;;;;;;;27.27;14.38;;;;;;;;;;5071113;28;20021;-69
2023/01/30 03:04:30;;;;;;;30.25;15.73;;;;;;;;;;5064000;28;20028;-69
2023/01/30 03:07:08;;;;;;;30.55;15.45;;;;;;;;;;5070393;28;20115;-69
2023/01/30 03:09:49;;;;;;;27.30;14.70;;;;;;;;;;5075981;28;20032;-69
2023/01/30 03:12:18;;;;;;;29.85;14.80;;;;;;;;;;5071103;28;20029;-69
2023/01/30 03:14:51;;;;;;;25.80;13.57;;;;;;;;;;5071262;28;20427;-68
2023/01/30 03:17:18;;;;;;;31.73;16.13;;;;;;;;;;5071182;28;20028;-68
2023/01/30 03:19:44;;;;;;;27.73;14.77;;;;;;;;;;5064655;28;20064;-68
2023/01/30 03:22:10;;;;;;;31.02;14.57;;;;;;;;;;5075721;28;20102;-68
2023/01/30 03:24:36;;;;;;;30.20;15.27;;;;;;;;;;5070854;28;20020;-68
2023/01/30 03:27:05;;;;;;;27.67;14.38;;;;;;;;;;5090333;28;20036;-68
2023/01/30 03:29:31;;;;;;;30.35;15.00;;;;;;;;;;5095682;28;20035;-68
2023/01/30 03:31:57;;;;;;;27.33;14.40;;;;;;;;;;5091282;28;20024;-68
2023/01/30 03:34:23;;;;;;;21.75;12.25;;;;;;;;;;5091649;28;20381;-68
2023/01/30 03:36:49;;;;;;;24.73;13.82;;;-2.20;99.90;;;;;;5086704;28;20024;-68
2023/01/30 03:39:15;;;;;;;24.30;13.38;;;-2.20;99.90;;;;;;5091146;28;20071;-68
2023/01/30 03:41:41;;;;;;;25.40;13.32;;;-2.10;99.90;;;;;;5094244;28;20431;-68
2023/01/30 03:44:06;;;;;;;21.55;11.85;;;-2.00;99.90;;;;;;5093888;28;20028;-68
2023/01/30 03:46:32;;;;;;;23.33;12.35;;;-1.90;99.90;;;;;;5100859;28;20016;-68
2023/01/30 03:48:57;;;;;;;20.25;11.75;;;-1.70;99.90;;;;;;5098035;28;20422;-68
2023/01/30 03:51:23;;;;;;;19.13;11.18;;;-1.60;99.90;;;;;;5097897;28;20055;-68
2023/01/30 03:53:48;;;;;;;22.42;11.65;;;-1.50;99.90;;;;;;5088625;28;20035;-68
2023/01/30 03:56:14;;;;;;;21.45;11.25;;;-1.50;99.90;;;;;;5086640;28;20028;-68
2023/01/30 03:58:40;;;;;;;22.45;11.35;;;-1.40;99.90;;;;;;5092458;28;20582;-68
2023/01/30 04:01:05;;;;;;;20.42;10.45;;;-1.30;99.90;;;;;;5086181;28;20089;-68
2023/01/30 04:03:32;;;;;;;19.45;11.10;;;-1.20;99.90;;;;;;5093522;28;20030;-68
2023/01/30 04:05:58;;;;;;;20.42;11.35;;;-1.20;99.90;;;;;;5093350;28;20036;-68
2023/01/30 04:08:23;;;;;;;21.20;11.50;;;-1.20;99.90;;;;;;5093567;28;20024;-68
2023/01/30 04:10:49;;;;;;;20.25;11.02;;;-1.20;99.90;;;;;;5093669;28;20036;-68
2023/01/30 04:13:15;;;;;;;18.23;10.15;;;-1.10;99.90;;;;;;5092494;28;20085;-69
2023/01/30 04:15:40;;;;;;;18.70;10.40;;;-1.10;99.90;;;;;;5090639;28;20054;-68
2023/01/30 04:18:06;;;;;;;21.75;11.95;;;-1.00;99.90;;;;;;5092675;28;20031;-69
2023/01/30 04:20:31;;;;;;;16.90;10.68;;;-0.90;99.90;;;;;;5093960;28;20036;-68
2023/01/30 04:22:57;;;;;;;18.80;10.80;;;-0.90;99.90;;;;;;5092565;28;20107;-69
2023/01/30 04:25:22;;;;;;;17.80;9.98;;;-0.80;99.90;;;;;;5095336;28;20070;-70
2023/01/30 04:27:48;;;;;;;18.98;10.77;;;-0.80;99.90;;;;;;5094458;28;20119;-70
2023/01/30 04:30:14;;;;;;;17.17;9.90;;;-0.80;99.90;;;;;;5095231;28;20036;-69
2023/01/30 04:32:40;;;;;;;18.75;10.40;;;-0.70;99.90;;;;;;5097202;28;20024;-69
2023/01/30 04:35:05;;;;;;;18.13;10.13;;;-0.60;99.90;;;;;;5092379;28;20392;-69
2023/01/30 04:37:31;;;;;;;15.02;8.93;;;-0.50;99.90;;;;;;5097313;28;20023;-70
2023/01/30 04:39:57;;;;;;;16.58;8.88;;;-0.50;99.90;;;;;;5091869;28;20036;-68
2023/01/30 04:42:22;;;;;;;14.63;9.07;;;-0.50;99.90;;;;;;5093518;28;20024;-68
2023/01/30 04:44:48;;;;;;;15.63;9.65;;;-0.40;99.90;;;;;;5092440;28;20130;-68
2023/01/30 04:47:13;;;;;;;17.75;8.82;;;-0.40;99.90;;;;;;5092773;28;20107;-68
2023/01/30 04:49:39;;;;;;;15.63;9.55;;;-0.40;99.90;;;;;;5091397;28;20077;-68
2023/01/30 04:52:05;;;;;;;15.93;8.95;;;-0.30;99.90;;;;;;5090947;28;20059;-68
2023/01/30 04:54:30;;;;;;;12.95;8.75;;;-0.20;99.90;;;;;;5094046;28;20072;-69
2023/01/30 04:56:56;;;;;;;14.82;8.13;;;-0.20;99.90;;;;;;5092635;28;20024;-69
2023/01/30 04:59:22;;;;;;;16.02;8.60;;;-0.20;99.90;;;;;;5094998;28;20051;-68
2023/01/30 05:01:48;;;;;;;15.10;9.02;;;-0.10;99.90;;;;;;5098675;28;20036;-69
2023/01/30 05:04:13;;;;;;;16.58;8.70;;;-0.10;99.90;;;;;;5092972;28;20036;-69
2023/01/30 05:06:39;;;;;;;14.43;8.27;;;-0.10;99.90;;;;;;5093124;28;20480;-69
2023/01/30 05:09:05;;;;;;;15.32;8.95;;;0.00;99.90;;;;;;5087984;28;20101;-69
2023/01/30 05:11:31;;;;;;;16.08;8.05;;;0.00;99.90;;;;;;5093193;28;20550;-69
2023/01/30 05:13:57;;;;;;;14.20;7.93;;;0.00;99.90;;;;;;5103443;28;20412;-69
2023/01/30 05:16:23;;;;;;;15.18;8.13;;;0.00;99.90;;;;;;5093146;28;20028;-67
2023/01/30 05:18:49;;;;;;;17.58;8.75;;;0.10;99.90;;;;;;5092661;28;20039;-70
2023/01/30 05:21:21;;;;;;;14.75;8.43;;;0.10;99.90;;;;;;5091576;28;20032;-69
2023/01/30 05:23:47;;;;;;;14.77;8.45;;;0.20;99.90;;;;;;5091394;28;20472;-69
2023/01/30 05:26:14;;;;;;;20.95;8.82;;;0.10;99.90;;;;;;5084472;28;20080;-68
2023/01/30 05:28:41;;;;;;;14.68;9.00;;;0.10;99.90;;;;;;5096185;28;20024;-69
2023/01/30 05:31:12;;;;;;;14.77;8.68;;;0.10;99.90;;;;;;5089334;28;20036;-69
2023/01/30 05:33:39;;;;;;;15.90;8.95;;;0.00;99.90;;;;;;5083924;28;20052;-69
2023/01/30 05:36:06;;;;;;;13.32;8.85;;;0.00;99.90;;;;;;5094681;28;20028;-69
2023/01/30 05:38:32;;;;;;;13.75;8.48;;;0.00;99.90;;;;;;5092199;28;20028;-69
2023/01/30 05:41:03;;;;;;;18.67;9.30;;;0.00;99.90;;;;;;5091061;28;20089;-69
2023/01/30 05:43:29;;;;;;;16.65;8.70;;;0.00;99.90;;;;;;5092982;28;20028;-69
2023/01/30 05:45:56;;;;;;;15.85;8.77;;;0.00;99.90;;;;;;5091244;28;20030;-69
2023/01/30 05:48:22;;;;;;;16.65;9.38;;;0.00;99.90;;;;;;5091695;28;20081;-69
2023/01/30 05:50:52;;;;;;;16.83;8.35;;;0.00;99.90;;;;;;5092357;28;20056;-69
2023/01/30 05:53:18;;;;;;;14.65;8.73;;;0.00;99.90;;;;;;5090576;28;20081;-69
2023/01/30 05:55:44;;;;;;;14.00;8.32;;;0.00;99.90;;;;;;5092615;28;20031;-69
2023/01/30 05:58:10;;;;;;;15.95;8.40;;;0.00;99.90;;;;;;5090515;28;20028;-69
2023/01/30 06:00:35;;;;;;;14.32;8.93;;;0.00;99.90;;;;;;5091767;28;20043;-68
2023/01/30 06:03:01;;;;;;;14.90;8.30;;;0.00;99.90;;;;;;5090123;28;20032;-69
2023/01/30 06:05:27;;;;;;;14.00;8.30;;;0.00;99.90;;;;;;5091839;28;20122;-69
2023/01/30 06:07:52;;;;;;;21.45;8.88;;;0.10;99.90;;;;;;5090897;28;20051;-69
2023/01/30 06:10:18;;;;;;;12.70;8.10;;;0.10;99.90;;;;;;5091517;28;20043;-68
2023/01/30 06:12:43;;;;;;;21.98;8.60;;;0.10;99.90;;;;;;5090850;28;20043;-69
2023/01/30 06:15:10;;;;;;;14.05;8.73;;;0.10;99.90;;;;;;5090126;28;20508;-69
2023/01/30 06:17:35;;;;;;;16.23;7.93;;;0.10;99.90;;;;;;5091778;28;20047;-69
2023/01/30 06:20:01;;;;;;;14.77;8.38;;;0.20;99.90;;;;;;5089151;28;20444;-68
2023/01/30 06:22:27;;;;;;;15.35;9.00;;;0.10;99.90;;;;;;5091649;28;20036;-68
2023/01/30 06:24:52;;;;;;;19.60;8.60;;;0.20;99.90;;;;;;5091098;28;20046;-68
2023/01/30 06:27:18;;;;;;;15.95;8.45;;;0.10;99.90;;;;;;5091794;28;20036;-68
2023/01/30 06:29:43;;;;;;;13.82;8.75;;;0.10;99.90;;;;;;5091595;28;20059;-68
2023/01/30 06:32:09;;;;;;;13.35;7.95;;;0.10;99.90;;;;;;5091790;28;20351;-69
2023/01/30 06:34:35;;;;;;;23.48;8.68;;;0.10;99.90;;;;;;5091562;28;20385;-68
2023/01/30 06:37:01;;;;;;;16.38;8.57;;;0.10;99.90;;;;;;5091509;28;20106;-68
2023/01/30 06:39:26;;;;;;;14.50;8.63;;;0.00;99.90;;;;;;5093380;28;20066;-69
2023/01/30 06:41:52;;;;;;;14.70;8.82;;;0.10;99.90;;;;;;5090819;28;20118;-68
2023/01/30 06:44:17;;;;;;;14.10;8.52;;;0.00;99.90;;;;;;5090791;28;20035;-65
2023/01/30 06:46:43;;;;;;;18.77;9.05;;;0.00;99.90;;;;;;5098472;28;20043;-72
2023/01/30 06:49:09;;;;;;;13.57;8.00;;;0.10;99.90;;;;;;5091808;28;20024;-72
2023/01/30 06:51:34;;;;;;;15.18;8.45;;;0.10;99.90;;;;;;5101203;28;20077;-69
2023/01/30 06:54:00;;;;;;;15.98;8.93;;;0.00;99.90;;;;;;5089982;28;20024;-68
2023/01/30 06:56:25;;;;;;;17.48;8.75;;;0.00;99.90;;;;;;5091248;28;20086;-67
2023/01/30 06:58:51;;;;;;;12.43;7.50;;;0.00;99.90;;;;;;5090218;28;20031;-67
2023/01/30 07:01:18;;;;;;;15.82;8.45;;;0.20;99.90;;;;;;5091588;28;20123;-66
2023/01/30 07:03:43;;;;;;;14.13;8.68;;;0.30;99.90;;;;;;5089628;28;20448;-66
2023/01/30 07:06:09;;;;;;;13.00;7.82;;;0.40;99.90;;;;;;5086018;28;20032;-66
2023/01/30 07:08:35;;;;;;;15.82;8.10;;;0.50;99.90;;;;;;5090974;28;20035;-66
2023/01/30 07:11:00;;;;;;;14.80;7.38;;;0.60;99.90;;;;;;5075443;28;20117;-66
2023/01/30 07:13:26;;;;;;;12.05;7.00;;;0.60;99.90;;;;;;5084467;28;20051;-66
2023/01/30 07:15:51;;;;;;;15.20;8.65;;;0.60;99.90;;;;;;5087561;28;20039;-67
2023/01/30 07:18:17;;;;;;;17.95;8.98;;;0.60;99.90;;;;;;5084641;28;20028;-68
2023/01/30 07:20:46;;;;;;;17.60;8.43;;;0.50;99.90;;;;;;5083192;28;20044;-67
2023/01/30 07:23:12;;;;;;;14.82;8.80;;;0.50;99.90;;;;;;5084543;28;20118;-67
2023/01/30 07:25:38;;;;;;;16.77;8.70;;;0.60;99.90;;;;;;5088737;28;20051;-65
2023/01/30 07:28:04;;;;;;;16.55;8.07;;;0.60;99.90;;;;;;5088707;28;20473;-66
2023/01/30 07:30:32;;;;;;;13.75;8.30;;;0.60;99.90;;;;;;5088436;28;20108;-67
2023/01/30 07:32:59;;;;;;;15.07;8.25;;;0.60;99.90;;;;;;5087311;28;20041;-67
2023/01/30 07:35:27;;;;;;;15.85;8.90;;;0.50;99.90;;;;;;5087660;28;20376;-66
2023/01/30 07:37:53;;;;;;;17.50;8.55;;;0.50;99.90;;;;;;5085692;28;20040;-67
2023/01/30 07:40:20;;;;;;;16.40;7.95;;;0.50;99.90;;;;;;5094983;28;20495;-66
2023/01/30 07:42:56;;;;;;;15.95;8.65;;;0.60;99.90;;;;;;5093241;28;20505;-66
2023/01/30 07:45:22;;;;;;;16.58;7.88;;;0.60;99.90;;;;;;5092128;28;20032;-66
2023/01/30 07:47:48;;;;;;;16.30;8.70;;;0.60;99.90;;;;;;5089600;28;20028;-69
2023/01/30 07:50:13;;;;;;;13.68;8.35;;;0.60;99.90;;;;;;5085247;28;20040;-65
2023/01/30 07:52:39;;;;;;;16.17;8.25;;;0.60;99.90;;;;;;5086485;28;20024;-65
2023/01/30 07:55:05;;;;;;;14.38;7.82;;;0.70;99.90;;;;;;5081385;28;20421;-66
2023/01/30 07:57:30;;;;;;;13.43;6.90;;;0.80;99.90;;;;;;5084480;28;20059;-65
2023/01/30 07:59:56;;;;;;;14.40;7.57;;;0.90;99.90;;;;;;5092367;28;20048;-65
2023/01/30 08:02:22;;;;;;;11.82;7.15;;;1.00;99.90;;;;;;5093739;28;20101;-66
2023/01/30 08:04:47;;;;;;;12.00;7.55;;;1.00;99.90;;;;;;5092621;28;20377;-67
2023/01/30 08:07:13;;;;;;;11.32;7.00;;;1.10;99.90;;;;;;5091461;28;20020;-68
2023/01/30 08:09:38;;;;;;;13.38;6.80;;;1.10;99.90;;;;;;5093093;28;20032;-66
2023/01/30 08:12:04;;;;;;;14.70;7.32;;;1.10;99.90;;;;;;5094483;28;20717;-67
2023/01/30 08:14:30;;;;;;;11.13;7.07;;;1.20;99.90;;;;;;5093447;28;20028;-66
2023/01/30 08:16:56;;;;;;;14.02;7.65;;;1.10;99.90;;;;;;5093310;28;20377;-67
2023/01/30 08:19:22;;;;;;;15.70;7.50;;;1.20;99.90;;;;;;5092508;28;20449;-67
2023/01/30 08:21:47;;;;;;;14.65;7.53;;;1.20;99.90;;;;;;5091329;28;20028;-66
2023/01/30 08:24:13;;;;;;;12.10;7.05;;;1.40;99.90;;;;;;5091129;28;20331;-67
2023/01/30 08:26:39;;;;;;;11.85;7.93;;;1.40;99.90;;;;;;5083813;28;20067;-67
2023/01/30 08:29:04;;;;;;;11.50;7.18;;;1.40;99.90;;;;;;5092679;28;20024;-67
2023/01/30 08:31:30;;;;;;;14.63;7.03;;;1.30;99.90;;;;;;5093671;28;20151;-67
2023/01/30 08:33:55;;;;;;;11.23;6.40;;;1.30;99.90;;;;;;5092159;28;20374;-67
2023/01/30 08:36:21;;;;;;;12.07;7.20;;;1.30;99.90;;;;;;5080070;28;20036;-67
2023/01/30 08:38:46;;;;;;;12.20;7.07;;;1.30;99.90;;;;;;5093136;28;20116;-66
2023/01/30 08:41:12;;;;;;;14.30;7.50;;;1.30;99.90;;;;;;5080488;28;20546;-66
2023/01/30 08:43:38;;;;;;;14.48;7.18;;;1.20;99.90;;;;;;5102763;28;20030;-66
2023/01/30 08:46:04;;;;;;;10.73;6.88;;;1.30;99.90;;;;;;5092715;28;20020;-67
2023/01/30 08:48:29;;;;;;;13.55;7.53;;;1.40;99.90;;;;;;5092420;28;20024;-67
2023/01/30 08:50:55;;;;;;;12.15;7.10;;;1.50;99.90;;;;;;5092713;28;20393;-67
2023/01/30 08:53:21;;;;;;;13.60;7.22;;;1.60;99.90;;;;;;5092873;28;20056;-67
2023/01/30 08:55:51;;;;;;;10.88;6.55;;;1.60;99.90;;;;;;5093002;28;20067;-68
2023/01/30 08:58:20;;;;;;;11.82;7.25;;;1.60;99.90;;;;;;5091545;28;20102;-68
2023/01/30 09:00:46;;;;;;;12.18;6.78;;;1.70;99.90;;;;;;5089161;28;20481;-67
2023/01/30 09:03:13;;;;;;;12.93;7.10;;;1.70;99.90;;;;;;5068213;28;20039;-67
2023/01/30 09:05:38;;;;;;;10.30;5.85;;;1.80;99.90;;;;;;5093637;28;20024;-67
2023/01/30 09:08:04;;;;;;;16.75;6.85;;;1.90;99.90;;;;;;5092054;28;20415;-67
2023/01/30 09:10:30;;;;;;;11.13;6.13;;;1.90;99.90;;;;;;5092934;28;20043;-68
2023/01/30 09:12:55;;;;;;;11.63;6.80;;;2.00;99.90;;;;;;5099192;28;20032;-68
2023/01/30 09:15:21;;;;;;;9.55;6.20;;;2.00;99.90;;;;;;5091375;28;20050;-67
2023/01/30 09:17:47;;;;;;;9.15;5.80;;;2.10;99.90;;;;;;5092759;28;20207;-67
2023/01/30 09:20:13;;;;;;;9.02;5.80;;;2.50;99.90;;;;;;5092562;28;20376;-67
2023/01/30 09:22:38;;;;;;;13.35;6.20;;;2.70;99.90;;;;;;5098744;28;20035;-67
2023/01/30 09:25:05;;;;;;;10.38;5.90;;;3.00;99.90;;;;;;5089617;28;20516;-67
2023/01/30 09:27:31;;;;;;;11.63;5.25;;;3.10;99.90;;;;;;5088001;28;20371;-67
2023/01/30 09:29:57;;;;;;;12.10;6.30;;;3.20;99.90;;;;;;5091361;28;20028;-67
2023/01/30 09:32:22;;;;;;;8.43;5.22;;;3.30;99.90;;;;;;5090901;28;20576;-67
2023/01/30 09:34:48;;;;;;;9.10;5.50;;;3.30;99.90;;;;;;5089700;28;20028;-67
2023/01/30 09:37:14;;;;;;;8.98;5.90;;;3.20;99.90;;;;;;5090988;28;20379;-66
2023/01/30 09:39:39;;;;;;;9.85;6.10;;;3.10;99.90;;;;;;5091550;28;20487;-67
2023/01/30 09:42:24;;;;;;;7.07;4.75;;;3.00;99.90;;;;;;5091218;28;20105;-67
2023/01/30 09:45:18;;;;;;;11.73;6.40;;;3.00;99.90;;;;;;5091211;28;20409;-67
2023/01/30 09:47:43;;;;;;;8.15;5.60;;;2.90;99.90;;;;;;5089487;28;20062;-67
2023/01/30 09:50:43;;;;;;;10.30;5.65;;;3.00;99.90;;;;;;5090203;28;20036;-67
2023/01/30 09:53:22;;;;;;;9.90;5.18;;;3.00;99.90;;;;;;5089081;28;20016;-66
2023/01/30 09:55:48;;;;;;;8.10;5.20;;;3.00;99.90;;;;;;5092009;28;20039;-66
2023/01/30 09:58:19;;;;;;;9.73;5.45;;;3.00;99.90;;;;;;5091337;28;20603;-67
2023/01/30 10:00:47;;;;;;;6.82;3.90;;;3.10;99.90;;;;;;5094924;28;20122;-67
2023/01/30 10:03:40;;;;;;;7.50;4.43;;;3.20;99.90;;;;;;5090678;28;20024;-68
2023/01/30 10:06:11;;;;;;;10.85;4.63;;;3.20;99.90;;;;;;5088211;28;20028;-67
2023/01/30 10:08:52;;;;;;;8.73;4.38;;;3.40;99.90;;;;;;5091649;28;20035;-66
2023/01/30 10:11:37;;;;;;;6.95;3.55;;;3.50;99.90;;;;;;5086207;28;20536;-67
2023/01/30 10:14:06;;;;;;;8.93;4.57;;;3.60;99.90;;;;;;5090627;28;20461;-69
2023/01/30 10:17:00;;;;;;;7.32;3.80;;;3.70;99.90;;;;;;5091693;28;20024;-69
2023/01/30 10:19:37;;;;;;;8.60;4.15;;;3.80;99.90;;;;;;5067213;28;20051;-69
2023/01/30 10:22:05;;;;;;;7.88;4.20;;;3.90;99.90;;;;;;5098784;28;20022;-69
2023/01/30 10:24:42;;;;;;;6.00;3.75;;;4.00;99.90;;;;;;5090033;28;20488;-69
2023/01/30 10:27:14;;;;;;;7.85;3.35;;;4.10;99.90;;;;;;5083075;28;20054;-69
2023/01/30 10:29:45;;;;;;;5.32;3.22;;;4.10;99.90;;;;;;5090933;28;20027;-69
2023/01/30 10:32:25;;;;;;;5.22;2.90;;;4.10;99.90;;;;;;5090944;28;20678;-69
2023/01/30 10:34:56;;;;;;;4.95;2.88;;;4.20;99.90;;;;;;5090566;28;20032;-69
2023/01/30 10:38:03;;;;;;;7.97;2.40;;;4.20;99.90;;;;;;5091360;28;20407;-69
2023/01/30 10:40:37;;;;;;;5.15;2.72;;;4.30;99.90;;;;;;5042169;28;20048;-69
2023/01/30 10:43:33;;;;;;;3.95;2.55;;;4.30;99.90;;;;;;5089988;28;20035;-70
2023/01/30 10:46:09;;;;;;;3.97;2.42;;;4.40;99.90;;;;;;5082567;28;20055;-70
2023/01/30 10:49:07;;;;;;;15.05;2.67;;;4.30;99.90;;;;;;5090349;28;20028;-68
2023/01/30 10:51:59;;;;;;;4.00;2.25;;;4.30;99.90;;;;;;5055717;28;20076;-68
2023/01/30 10:54:27;;;;;;;4.82;2.88;;;4.20;99.90;;;;;;5090685;28;20110;-68
2023/01/30 10:57:06;;;;;;;4.30;2.50;;;4.20;99.90;;;;;;5089644;28;20054;-69
2023/01/30 10:59:55;;;;;;;6.07;2.63;;;4.20;99.90;;;;;;5090503;28;20115;-70
2023/01/30 11:03:01;;;;;;;6.60;2.65;;;4.20;99.90;;;;;;5087722;28;20031;-70
2023/01/30 11:05:38;;;;;;;6.18;2.53;;;4.10;99.90;;;;;;5057047;28;20028;-69
2023/01/30 11:08:32;;;;;;;3.38;2.30;;;4.20;99.90;;;;;;5088645;28;20402;-69
2023/01/30 11:10:58;;;;;;;8.23;2.10;;;4.20;99.90;;;;;;5079008;28;20404;-69
2023/01/30 11:13:29;;;;;;;3.47;2.22;;;4.10;99.90;;;;;;5076705;28;20032;-69
2023/01/30 11:16:04;;;;;;;4.75;2.05;;;4.10;99.90;;;;;;5088745;28;20047;-68
2023/01/30 11:18:30;;;;;;;3.10;2.17;;;4.10;99.90;;;;;;5087679;28;20174;-69
2023/01/30 11:21:09;;;;;;;4.35;2.05;;;4.00;99.90;;;;;;5093810;28;20040;-68
2023/01/30 11:23:40;;;;;;;4.93;2.13;;;3.90;99.90;;;;;;5086795;28;20024;-67
2023/01/30 11:26:06;;;;;;;4.78;2.05;;;3.90;99.90;;;;;;5089077;28;20067;-68
2023/01/30 11:28:40;;;;;;;3.70;2.50;;;3.70;99.90;;;;;;5089904;28;20028;-68
2023/01/30 11:31:17;;;;;;;4.55;3.00;;;3.70;99.90;;;;;;5088983;28;20042;-69
2023/01/30 11:33:43;;;;;;;9.35;2.60;;;3.80;99.90;;;;;;5089856;28;20032;-69
2023/01/30 11:36:35;;;;;;;4.57;2.80;;;3.80;99.90;;;;;;5088999;28;20031;-69
2023/01/30 11:39:19;;;;;;;4.07;3.10;;;3.80;99.90;;;;;;5085978;28;20024;-68
2023/01/30 11:41:57;;;;;;;3.95;2.70;;;3.80;99.90;;;;;;5090432;28;20040;-68
2023/01/30 11:44:32;;;;;;;4.72;3.28;;;3.80;99.90;;;;;;5088984;28;20530;-69
2023/01/30 11:47:08;;;;;;;4.65;3.08;;;3.60;99.90;;;;;;5089671;28;20461;-69
2023/01/30 11:49:42;;;;;;;4.47;3.28;;;3.40;99.90;;;;;;5087845;28;20032;-68
2023/01/30 11:52:09;;;;;;;6.20;3.53;;;3.30;99.90;;;;;;5087264;28;20695;-69
2023/01/30 11:54:39;;;;;;;6.05;3.22;;;3.10;99.90;;;;;;5087840;28;20024;-68
2023/01/30 11:57:16;;;;;;;5.22;3.20;;;3.00;99.90;;;;;;5085813;28;20050;-68
2023/01/30 11:59:44;;;;;;;6.32;3.65;;;2.90;99.90;;;;;;5083262;28;20070;-69
2023/01/30 12:02:18;;;;;;;4.60;3.22;;;2.80;99.90;;;;;;5091918;28;20028;-68
2023/01/30 12:04:46;;;;;;;7.28;3.90;;;2.80;99.90;;;;;;5088410;28;20483;-68
2023/01/30 12:07:22;;;;;;;7.18;3.65;;;2.80;99.90;;;;;;5093194;28;20484;-68
2023/01/30 12:09:49;;;;;;;5.07;3.42;;;2.80;99.90;;;;;;5092887;28;20472;-68
2023/01/30 12:12:47;;;;;;;5.55;3.60;;;2.70;99.90;;;;;;5090975;28;20486;-69
2023/01/30 12:15:30;;;;;;;6.80;3.30;;;2.70;99.90;;;;;;5074552;28;20393;-69
2023/01/30 12:18:17;;;;;;;6.13;3.55;;;2.70;99.90;;;;;;5092238;28;20112;-69
2023/01/30 12:21:03;;;;;;;6.28;3.72;;;2.70;99.90;;;;;;5093929;28;20105;-68
2023/01/30 12:23:50;;;;;;;6.03;3.80;;;2.70;99.90;;;;;;5092534;28;20060;-68
2023/01/30 12:26:19;;;;;;;6.68;3.90;;;2.70;99.90;;;;;;5081542;28;20047;-69
2023/01/30 12:28:53;;;;;;;7.43;3.92;;;2.60;99.90;;;;;;5093036;28;20031;-69
2023/01/30 12:32:08;;;;;;;5.15;3.65;;;2.60;99.90;;;;;;5093632;28;20036;-68
2023/01/30 12:34:33;;;;;;;6.95;3.92;;;2.60;99.90;;;;;;5079349;28;20028;-68
2023/01/30 12:37:25;;;;;;;5.70;3.28;;;2.60;99.90;;;;;;5092006;28;20055;-69
2023/01/30 12:40:23;;;;;;;9.00;4.28;;;2.60;99.90;;;;;;5072754;28;20438;-69
2023/01/30 12:43:21;;;;;;;6.80;4.95;;;2.50;99.90;;;;;;5093509;28;20419;-69
2023/01/30 12:46:11;;;;;;;7.25;3.72;;;2.50;99.90;;;;;;5090238;28;20052;-69
2023/01/30 12:49:03;;;;;;;9.02;4.03;;;2.50;99.90;;;;;;5092821;28;20024;-69
2023/01/30 12:51:31;;;;;;;8.10;4.63;;;2.50;99.90;;;;;;5093156;28;20114;-69
2023/01/30 12:54:21;;;;;;;7.05;4.10;;;2.50;99.90;;;;;;5091991;28;20147;-68
2023/01/30 12:56:46;;;;;;;6.17;3.87;;;2.50;99.90;;;;;;5089997;28;20046;-69
2023/01/30 12:59:26;;;;;;;7.38;4.38;;;2.40;99.90;;;;;;5091521;28;20266;-69
2023/01/30 13:02:29;;;;;;;10.02;4.55;;;2.30;99.90;;;;;;5092079;28;20036;-70
2023/01/30 13:05:13;;;;;;;6.60;4.10;;;2.30;99.90;;;;;;5091544;28;20128;-68
2023/01/30 13:07:49;;;;;;;9.88;4.72;;;2.30;99.90;;;;;;5093340;28;20076;-68
2023/01/30 13:10:27;;;;;;;8.05;4.53;;;2.30;99.90;;;;;;5087215;28;20028;-69
2023/01/30 13:13:08;;;;;;;9.77;5.80;;;2.30;99.90;;;;;;5087907;28;20062;-69
2023/01/30 13:15:47;;;;;;;11.38;5.15;;;2.30;99.90;;;;;;5103049;28;20024;-69
2023/01/30 13:18:21;;;;;;;7.07;4.47;;;2.30;99.90;;;;;;5079955;28;20127;-69
2023/01/30 13:21:24;;;;;;;7.88;5.10;;;2.30;99.90;;;;;;5092561;28;20103;-69
2023/01/30 13:24:38;;;;;;;7.70;4.38;;;2.20;99.90;;;;;;5091077;28;20032;-69
2023/01/30 13:27:08;;;;;;;7.43;4.38;;;2.30;99.90;;;;;;5036018;28;20069;-69